This demonstration page uses our WeatherBlox Daily Observations layout. Learn more.

41.55636, -103.73856

Hourly Observations for November 14, 2015

Temp ( °F °C ) Dew Point ( °F °C ) Humidity (%) Winds ( mph kmh ) Pressure ( in mb ) Visibility ( mi km ) Precip ( " mm )
12:53 am 00:53 Clear 28 -2.2 22 -5.6 78 78 N 6 9 30.07 1018 10 16.0934 0 0
1:53 am 01:53 Clear 28 -2.2 21 -6.1 75 75 N 3 6 30.07 1018 10 16.0934 0 0
2:53 am 02:53 Clear 27 -2.8 20 -6.7 75 75 E 3 6 30.07 1018 10 16.0934 0 0
3:53 am 03:53 Clear 28 -2.2 20 -6.7 72 72 E 5 7 30.07 1018 10 16.0934 0 0
4:53 am 04:53 Clear 25 -3.9 19 -7.2 78 78 ENE 3 6 30.1 1019 10 16.0934 0 0
5:53 am 05:53 Clear 28 -2.2 20 -6.7 72 72 NNE 5 7 30.09 1019 10 16.0934 0 0
6:53 am 06:53 Sunny 28 -2.2 19 -7.2 69 69 E 5 7 30.1 1019 10 16.0934 0 0
7:53 am 07:53 Sunny 37 2.8 26 -3.3 65 65 NNE 5 7 30.11 1020 10 16.0934 0 0
8:53 am 08:53 Sunny 46 7.8 24 -4.4 42 42 NNW 3 6 30.07 1018 10 16.0934 0 0
9:53 am 09:53 Sunny 52 11.1 27 -2.8 38 38 Calm 30.06 1018 10 16.0934 0 0
10:53 am 10:53 Sunny 60 15.6 22 -5.6 23 23 W 7 11 30.02 1017 10 16.0934 0 0
11:53 am 11:53 Sunny 65 18.3 21 -6.1 19 19 W 9 15 29.98 1015 10 16.0934 0 0
12:53 pm 12:53 Sunny 67 19.4 18 -7.8 15 15 W 12 19 29.95 1014 10 16.0934 0 0
1:53 pm 13:53 Sunny 68 20 18 -7.8 15 15 W 10 17 29.94 1014 10 16.0934 0 0
2:53 pm 14:53 Sunny 68 20 18 -7.8 15 15 W 7 11 29.93 1014 10 16.0934 0 0
3:53 pm 15:53 Sunny 63 17.2 22 -5.6 21 21 WSW 3 6 29.94 1014 10 16.0934 0 0
4:53 pm 16:53 Clear 56 13.3 20 -6.7 24 24 W 6 9 29.97 1015 10 16.0934 0 0
5:53 pm 17:53 Clear 51 10.6 20 -6.7 29 29 Calm 29.99 1016 10 16.0934 0 0
6:53 pm 18:53 Clear 39 3.9 22 -5.6 50 50 Calm 30.03 1017 10 16.0934 0 0
7:53 pm 19:53 Clear 36 2.2 23 -5 59 59 E 3 6 30.01 1016 10 16.0934 0 0
8:53 pm 20:53 Clear 34 1.1 23 -5 64 64 NNE 7 11 30 1016 10 16.0934 0 0
11:53 pm 23:53 Clear 28 -2.2 21 -6.1 75 75 N 5 7 29.95 1014 10 16.0934 0 0

Powered by AerisWeather